Time,TemperatureF,DewpointF,PressureIn,WindDirection,WindDirectionDegrees,WindSpeedMPH,WindSpeedGustMPH,Humidity,HourlyPrecipIn,Conditions,Clouds,dailyrainin,SoftwareType,DateUTC
2013-08-16 00:00:00,66.9,54.7,29.90,SSW,213,0.0,0.0,65,0.00,,,0.00,Wunderground v.1.15,2013-08-16 07:00:00,
2013-08-16 00:05:00,66.8,54.7,29.90,SSW,213,0.0,0.0,65,0.00,,,0.00,Wunderground v.1.15,2013-08-16 07:05:00,
2013-08-16 00:10:00,66.4,54.7,29.90,SSW,213,0.0,0.0,66,0.00,,,0.00,Wunderground v.1.15,2013-08-16 07:10:00,
2013-08-16 00:20:00,66.1,54.8,29.90,SSW,213,0.0,0.0,67,0.00,,,0.00,Wunderground v.1.15,2013-08-16 07:20:00,
2013-08-16 00:25:00,66.0,54.7,29.90,SSW,213,0.0,0.0,67,0.00,,,0.00,Wunderground v.1.15,2013-08-16 07:25:00,
2013-08-16 00:30:00,65.8,54.5,29.90,SSW,213,0.0,0.0,67,0.00,,,0.00,Wunderground v.1.15,2013-08-16 07:30:00,
2013-08-16 00:35:00,65.6,54.8,29.90,SSW,213,0.0,0.0,68,0.00,,,0.00,Wunderground v.1.15,2013-08-16 07:35:00,
2013-08-16 00:45:00,65.3,54.5,29.90,SSW,213,0.0,0.0,68,0.00,,,0.00,Wunderground v.1.15,2013-08-16 07:45:00,
2013-08-16 00:55:00,64.8,54.0,29.90,SSW,213,0.0,0.0,68,0.00,,,0.00,Wunderground v.1.15,2013-08-16 07:55:00,
2013-08-16 01:00:00,64.7,54.3,29.90,SSW,213,0.0,0.0,69,0.00,,,0.00,Wunderground v.1.15,2013-08-16 08:00:00,
2013-08-16 01:09:00,64.3,54.3,29.90,SSW,213,0.0,0.0,70,0.00,,,0.00,Wunderground v.1.15,2013-08-16 08:09:00,
2013-08-16 01:15:00,64.0,54.0,29.90,SSW,213,0.0,2.0,70,0.00,,,0.00,Wunderground v.1.15,2013-08-16 08:15:00,
2013-08-16 01:20:00,63.7,53.7,29.90,SSW,213,0.0,0.0,70,0.00,,,0.00,Wunderground v.1.15,2013-08-16 08:20:00,
2013-08-16 01:25:00,63.5,53.9,29.90,SSW,213,0.0,0.0,71,0.00,,,0.00,Wunderground v.1.15,2013-08-16 08:25:00,
2013-08-16 01:30:00,63.4,53.8,29.90,SSW,213,0.0,0.0,71,0.00,,,0.00,Wunderground v.1.15,2013-08-16 08:30:00,
2013-08-16 01:39:00,63.1,53.9,29.90,SSW,213,0.0,0.0,72,0.00,,,0.00,Wunderground v.1.15,2013-08-16 08:39:00,
2013-08-16 01:45:00,62.9,53.7,29.90,SSW,213,0.0,0.0,72,0.00,,,0.00,Wunderground v.1.15,2013-08-16 08:45:00,
2013-08-16 01:50:00,62.9,53.7,29.90,SSW,213,0.0,0.0,72,0.00,,,0.00,Wunderground v.1.15,2013-08-16 08:50:00,
2013-08-16 01:55:00,62.7,53.5,29.90,SSW,213,0.0,0.0,72,0.00,,,0.00,Wunderground v.1.15,2013-08-16 08:55:00,
2013-08-16 02:00:00,62.6,53.4,29.90,SSW,213,0.0,0.0,72,0.00,,,0.00,Wunderground v.1.15,2013-08-16 09:00:00,
2013-08-16 02:09:00,62.4,53.6,29.90,SSW,213,0.0,0.0,73,0.00,,,0.00,Wunderground v.1.15,2013-08-16 09:09:00,
2013-08-16 02:15:00,62.3,53.5,29.90,SSW,213,0.0,0.0,73,0.00,,,0.00,Wunderground v.1.15,2013-08-16 09:15:00,
2013-08-16 02:20:00,62.0,53.6,29.90,SSW,213,0.0,0.0,74,0.00,,,0.00,Wunderground v.1.15,2013-08-16 09:20:00,
2013-08-16 02:25:00,62.0,53.6,29.90,SSW,213,0.0,0.0,74,0.00,,,0.00,Wunderground v.1.15,2013-08-16 09:25:00,
2013-08-16 02:34:00,61.6,52.9,29.90,SSW,213,0.0,0.0,73,0.00,,,0.00,Wunderground v.1.15,2013-08-16 09:34:00,
2013-08-16 02:40:00,61.5,53.1,29.90,SSW,213,0.0,0.0,74,0.00,,,0.00,Wunderground v.1.15,2013-08-16 09:40:00,
2013-08-16 02:45:00,61.3,53.3,29.90,SSW,213,0.0,0.0,75,0.00,,,0.00,Wunderground v.1.15,2013-08-16 09:45:00,
2013-08-16 02:50:00,61.2,53.2,29.90,SSW,213,0.0,0.0,75,0.00,,,0.00,Wunderground v.1.15,2013-08-16 09:50:00,
2013-08-16 02:59:00,60.9,53.3,29.90,SSW,213,0.0,0.0,76,0.00,,,0.00,Wunderground v.1.15,2013-08-16 09:59:00,
2013-08-16 03:05:00,60.7,53.1,29.90,SSW,213,0.0,0.0,76,0.00,,,0.00,Wunderground v.1.15,2013-08-16 10:05:00,
2013-08-16 03:10:00,60.5,52.9,29.90,SSW,213,0.0,0.0,76,0.00,,,0.00,Wunderground v.1.15,2013-08-16 10:10:00,
2013-08-16 03:15:00,60.5,52.9,29.90,SSW,213,0.0,0.0,76,0.00,,,0.00,Wunderground v.1.15,2013-08-16 10:15:00,
2013-08-16 03:24:00,60.4,52.8,29.90,SSW,213,0.0,0.0,76,0.00,,,0.00,Wunderground v.1.15,2013-08-16 10:24:00,
2013-08-16 03:30:00,60.1,52.5,29.90,SSW,213,0.0,0.0,76,0.00,,,0.00,Wunderground v.1.15,2013-08-16 10:30:00,
2013-08-16 03:35:00,59.9,52.7,29.90,SSW,213,0.0,0.0,77,0.00,,,0.00,Wunderground v.1.15,2013-08-16 10:35:00,
2013-08-16 03:40:00,59.8,52.6,29.90,SSW,213,0.0,0.0,77,0.00,,,0.00,Wunderground v.1.15,2013-08-16 10:40:00,
2013-08-16 03:49:00,59.6,52.7,29.91,SSW,213,0.0,0.0,78,0.00,,,0.00,Wunderground v.1.15,2013-08-16 10:49:00,
2013-08-16 03:55:00,59.6,52.7,29.91,SSW,213,0.0,0.0,78,0.00,,,0.00,Wunderground v.1.15,2013-08-16 10:55:00,
2013-08-16 04:00:00,59.5,52.3,29.91,SSW,213,0.0,0.0,77,0.00,,,0.00,Wunderground v.1.15,2013-08-16 11:00:00,
2013-08-16 04:09:00,59.2,52.0,29.91,SSW,213,0.0,0.0,77,0.00,,,0.00,Wunderground v.1.15,2013-08-16 11:09:00,
2013-08-16 04:14:00,59.2,52.3,29.91,SSW,213,0.0,0.0,78,0.00,,,0.00,Wunderground v.1.15,2013-08-16 11:14:00,
2013-08-16 04:20:00,59.0,52.5,29.91,SSW,213,0.0,0.0,79,0.00,,,0.00,Wunderground v.1.15,2013-08-16 11:20:00,
2013-08-16 04:25:00,59.0,52.5,29.91,SSW,213,0.0,0.0,79,0.00,,,0.00,Wunderground v.1.15,2013-08-16 11:25:00,
2013-08-16 04:30:00,59.0,52.5,29.91,SSW,213,0.0,0.0,79,0.00,,,0.00,Wunderground v.1.15,2013-08-16 11:30:00,
2013-08-16 04:39:00,58.9,52.1,29.91,SSW,213,0.0,0.0,78,0.00,,,0.00,Wunderground v.1.15,2013-08-16 11:39:00,
2013-08-16 04:45:00,58.9,52.4,29.91,SSW,213,0.0,0.0,79,0.00,,,0.00,Wunderground v.1.15,2013-08-16 11:45:00,
2013-08-16 04:50:00,58.7,52.2,29.91,SSW,213,0.0,0.0,79,0.00,,,0.00,Wunderground v.1.15,2013-08-16 11:50:00,
2013-08-16 04:55:00,58.6,52.4,29.91,SSW,213,0.0,0.0,80,0.00,,,0.00,Wunderground v.1.15,2013-08-16 11:55:00,
2013-08-16 05:04:00,58.6,52.4,29.92,SSW,213,0.0,0.0,80,0.00,,,0.00,Wunderground v.1.15,2013-08-16 12:04:00,
2013-08-16 05:09:00,58.4,52.3,29.92,SSW,213,0.0,0.0,80,0.00,,,0.00,Wunderground v.1.15,2013-08-16 12:09:00,
2013-08-16 05:15:00,58.3,52.2,29.92,SSW,213,0.0,0.0,80,0.00,,,0.00,Wunderground v.1.15,2013-08-16 12:15:00,
2013-08-16 05:20:00,58.1,52.0,29.92,SSW,213,0.0,0.0,80,0.00,,,0.00,Wunderground v.1.15,2013-08-16 12:20:00,
2013-08-16 05:25:00,58.0,51.9,29.92,SSW,213,0.0,0.0,80,0.00,,,0.00,Wunderground v.1.15,2013-08-16 12:25:00,
2013-08-16 05:35:00,57.8,52.0,29.92,SSW,213,0.0,0.0,81,0.00,,,0.00,Wunderground v.1.15,2013-08-16 12:35:00,
2013-08-16 05:40:00,57.8,52.0,29.92,SSW,213,0.0,0.0,81,0.00,,,0.00,Wunderground v.1.15,2013-08-16 12:40:00,
2013-08-16 05:45:00,57.5,51.7,29.92,SSW,213,0.0,0.0,81,0.00,,,0.00,Wunderground v.1.15,2013-08-16 12:45:00,
2013-08-16 05:55:00,57.5,52.0,29.92,SSW,213,0.0,0.0,82,0.00,,,0.00,Wunderground v.1.15,2013-08-16 12:55:00,
2013-08-16 06:05:00,57.3,51.5,29.92,SSW,213,0.0,0.0,81,0.00,,,0.00,Wunderground v.1.15,2013-08-16 13:05:00,
2013-08-16 06:10:00,57.3,51.9,29.92,SSW,213,0.0,0.0,82,0.00,,,0.00,Wunderground v.1.15,2013-08-16 13:10:00,
2013-08-16 06:19:00,57.2,51.8,29.93,SSW,213,0.0,0.0,82,0.00,,,0.00,Wunderground v.1.15,2013-08-16 13:19:00,
2013-08-16 06:25:00,57.2,51.8,29.93,SSW,213,0.0,0.0,82,0.00,,,0.00,Wunderground v.1.15,2013-08-16 13:25:00,
2013-08-16 06:30:00,57.0,51.6,29.93,SSW,213,0.0,0.0,82,0.00,,,0.00,Wunderground v.1.15,2013-08-16 13:30:00,
2013-08-16 06:39:00,56.9,51.8,29.93,SSW,213,0.0,0.0,83,0.00,,,0.00,Wunderground v.1.15,2013-08-16 13:39:00,
2013-08-16 06:45:00,56.9,51.8,29.93,SSW,213,0.0,0.0,83,0.00,,,0.00,Wunderground v.1.15,2013-08-16 13:45:00,
2013-08-16 06:50:00,56.9,51.8,29.93,SSW,213,0.0,0.0,83,0.00,,,0.00,Wunderground v.1.15,2013-08-16 13:50:00,
2013-08-16 06:55:00,57.0,51.9,29.93,SSW,213,0.0,0.0,83,0.00,,,0.00,Wunderground v.1.15,2013-08-16 13:55:00,
2013-08-16 07:00:00,57.2,51.8,29.94,SSW,213,0.0,0.0,82,0.00,,,0.00,Wunderground v.1.15,2013-08-16 14:00:00,
2013-08-16 07:10:00,57.5,52.0,29.94,SSW,213,0.0,0.0,82,0.00,,,0.00,Wunderground v.1.15,2013-08-16 14:10:00,
2013-08-16 07:15:00,58.1,52.6,29.94,SSW,213,0.0,0.0,82,0.00,,,0.00,Wunderground v.1.15,2013-08-16 14:15:00,
2013-08-16 07:20:00,58.7,52.9,29.94,SSW,213,0.0,0.0,81,0.00,,,0.00,Wunderground v.1.15,2013-08-16 14:20:00,
2013-08-16 07:30:00,59.3,53.1,29.94,SSW,213,0.0,0.0,80,0.00,,,0.00,Wunderground v.1.15,2013-08-16 14:30:00,
2013-08-16 07:35:00,59.8,53.3,29.94,SSW,213,0.0,0.0,79,0.00,,,0.00,Wunderground v.1.15,2013-08-16 14:35:00,
2013-08-16 07:40:00,60.2,53.3,29.94,SSW,213,0.0,0.0,78,0.00,,,0.00,Wunderground v.1.15,2013-08-16 14:40:00,
2013-08-16 07:50:00,61.6,54.3,29.94,SSW,213,0.0,0.0,77,0.00,,,0.00,Wunderground v.1.15,2013-08-16 14:50:00,
2013-08-16 07:55:00,62.4,55.1,29.94,SSW,213,0.0,0.0,77,0.00,,,0.00,Wunderground v.1.15,2013-08-16 14:55:00,
2013-08-16 08:00:00,63.2,55.5,29.94,SSW,213,0.0,0.0,76,0.00,,,0.00,Wunderground v.1.15,2013-08-16 15:00:00,
2013-08-16 08:09:00,65.3,56.4,29.94,SSW,213,0.0,0.0,73,0.00,,,0.00,Wunderground v.1.15,2013-08-16 15:09:00,
2013-08-16 08:15:00,66.4,56.3,29.94,SSW,213,0.0,0.0,70,0.00,,,0.00,Wunderground v.1.15,2013-08-16 15:15:00,
2013-08-16 08:20:00,67.6,56.7,29.94,SSW,213,0.0,0.0,68,0.00,,,0.00,Wunderground v.1.15,2013-08-16 15:20:00,
2013-08-16 08:25:00,68.9,57.1,29.94,SSW,213,0.0,0.0,66,0.00,,,0.00,Wunderground v.1.15,2013-08-16 15:25:00,
2013-08-16 08:35:00,70.8,56.7,29.94,SSW,213,0.0,0.0,61,0.00,,,0.00,Wunderground v.1.15,2013-08-16 15:35:00,
2013-08-16 08:40:00,71.8,56.2,29.94,SSW,213,0.0,0.0,58,0.00,,,0.00,Wunderground v.1.15,2013-08-16 15:40:00,
2013-08-16 08:45:00,72.7,57.1,29.94,SSW,213,0.0,0.0,58,0.00,,,0.00,Wunderground v.1.15,2013-08-16 15:45:00,
2013-08-16 08:50:00,73.7,57.0,29.94,SSW,213,0.0,0.0,56,0.00,,,0.00,Wunderground v.1.15,2013-08-16 15:50:00,
2013-08-16 08:59:00,74.6,57.9,29.94,SSW,213,0.0,0.0,56,0.00,,,0.00,Wunderground v.1.15,2013-08-16 15:59:00,
2013-08-16 09:05:00,74.9,57.6,29.94,East,95,0.0,0.0,55,0.00,,,0.00,Wunderground v.1.15,2013-08-16 16:05:00,
2013-08-16 09:10:00,75.4,58.1,29.94,East,95,0.0,0.0,55,0.00,,,0.00,Wunderground v.1.15,2013-08-16 16:10:00,
2013-08-16 09:15:00,76.0,58.7,29.94,East,95,0.0,0.0,55,0.00,,,0.00,Wunderground v.1.15,2013-08-16 16:15:00,
2013-08-16 09:25:00,77.0,58.6,29.94,East,92,0.0,0.0,53,0.00,,,0.00,Wunderground v.1.15,2013-08-16 16:25:00,
2013-08-16 09:30:00,77.4,58.4,29.94,East,92,0.0,0.0,52,0.00,,,0.00,Wunderground v.1.15,2013-08-16 16:30:00,
2013-08-16 09:35:00,78.1,59.0,29.94,East,92,0.0,0.0,52,0.00,,,0.00,Wunderground v.1.15,2013-08-16 16:35:00,
2013-08-16 09:40:00,78.8,59.1,29.94,East,84,0.0,0.0,51,0.00,,,0.00,Wunderground v.1.15,2013-08-16 16:40:00,
2013-08-16 09:50:00,79.2,58.4,29.93,East,84,0.0,0.0,49,0.00,,,0.00,Wunderground v.1.15,2013-08-16 16:50:00,
2013-08-16 09:55:00,80.1,57.5,29.93,East,84,0.0,0.0,46,0.00,,,0.00,Wunderground v.1.15,2013-08-16 16:55:00,
2013-08-16 10:00:00,80.9,57.6,29.93,East,90,0.0,1.0,45,0.00,,,0.00,Wunderground v.1.15,2013-08-16 17:00:00,
2013-08-16 10:09:00,81.2,56.6,29.93,ESE,103,1.0,1.0,43,0.00,,,0.00,Wunderground v.1.15,2013-08-16 17:09:00,
2013-08-16 10:15:00,81.6,56.3,29.93,ESE,103,0.0,1.0,42,0.00,,,0.00,Wunderground v.1.15,2013-08-16 17:15:00,
2013-08-16 10:20:00,82.4,54.2,29.93,East,100,0.0,0.0,38,0.00,,,0.00,Wunderground v.1.15,2013-08-16 17:20:00,
2013-08-16 10:30:00,83.4,55.1,29.93,East,94,0.0,0.0,38,0.00,,,0.00,Wunderground v.1.15,2013-08-16 17:30:00,
2013-08-16 10:35:00,83.8,55.5,29.93,SSW,198,0.0,0.0,38,0.00,,,0.00,Wunderground v.1.15,2013-08-16 17:35:00,
2013-08-16 10:40:00,84.5,53.8,29.93,East,92,1.0,1.0,35,0.00,,,0.00,Wunderground v.1.15,2013-08-16 17:40:00,
2013-08-16 10:50:00,85.1,53.6,29.93,SE,144,0.0,3.0,34,0.00,,,0.00,Wunderground v.1.15,2013-08-16 17:50:00,
2013-08-16 10:55:00,84.9,54.2,29.93,East,92,1.0,3.0,35,0.00,,,0.00,Wunderground v.1.15,2013-08-16 17:55:00,
2013-08-16 11:00:00,85.3,53.8,29.93,East,80,2.0,3.0,34,0.00,,,0.00,Wunderground v.1.15,2013-08-16 18:00:00,
2013-08-16 11:10:00,86.7,53.3,29.93,ENE,60,2.0,4.0,32,0.00,,,0.00,Wunderground v.1.15,2013-08-16 18:10:00,
2013-08-16 11:15:00,87.0,52.7,29.93,ENE,66,2.0,4.0,31,0.00,,,0.00,Wunderground v.1.15,2013-08-16 18:15:00,
2013-08-16 11:20:00,87.2,52.0,29.93,East,88,3.0,3.0,30,0.00,,,0.00,Wunderground v.1.15,2013-08-16 18:20:00,
2013-08-16 11:30:00,87.6,52.3,29.92,East,96,3.0,3.0,30,0.00,,,0.00,Wunderground v.1.15,2013-08-16 18:30:00,
2013-08-16 11:35:00,88.2,52.9,29.92,NE,50,3.0,3.0,30,0.00,,,0.00,Wunderground v.1.15,2013-08-16 18:35:00,
2013-08-16 11:40:00,89.0,52.6,29.92,ESE,117,2.0,2.0,29,0.00,,,0.00,Wunderground v.1.15,2013-08-16 18:40:00,
2013-08-16 11:50:00,89.5,52.1,29.92,ENE,62,3.0,4.0,28,0.00,,,0.00,Wunderground v.1.15,2013-08-16 18:50:00,
2013-08-16 11:55:00,89.7,51.3,29.92,ESE,105,3.0,4.0,27,0.00,,,0.00,Wunderground v.1.15,2013-08-16 18:55:00,
2013-08-16 12:00:00,90.7,53.1,29.91,ESE,116,3.0,3.0,28,0.00,,,0.00,Wunderground v.1.15,2013-08-16 19:00:00,
2013-08-16 12:05:00,90.5,50.9,29.91,SE,125,3.0,3.0,26,0.00,,,0.00,Wunderground v.1.15,2013-08-16 19:05:00,
2013-08-16 12:15:00,91.0,52.4,29.91,NE,55,2.0,3.0,27,0.00,,,0.00,Wunderground v.1.15,2013-08-16 19:15:00,
2013-08-16 12:20:00,91.2,51.5,29.91,NE,45,2.0,2.0,26,0.00,,,0.00,Wunderground v.1.15,2013-08-16 19:20:00,
2013-08-16 12:29:00,92.5,49.3,29.91,East,82,2.0,2.0,23,0.00,,,0.00,Wunderground v.1.15,2013-08-16 19:29:00,
2013-08-16 12:35:00,92.5,50.5,29.91,SE,134,3.0,3.0,24,0.00,,,0.00,Wunderground v.1.15,2013-08-16 19:35:00,
2013-08-16 12:40:00,92.3,50.3,29.91,East,84,3.0,3.0,24,0.00,,,0.00,Wunderground v.1.15,2013-08-16 19:40:00,
2013-08-16 12:50:00,91.8,51.0,29.91,ESE,119,2.0,9.0,25,0.00,,,0.00,Wunderground v.1.15,2013-08-16 19:50:00,
2013-08-16 13:00:00,92.7,51.7,29.91,West,270,5.0,5.0,25,0.00,,,0.00,Wunderground v.1.15,2013-08-16 20:00:00,
2013-08-16 13:05:00,92.3,52.5,29.91,West,268,5.0,5.0,26,0.00,,,0.00,Wunderground v.1.15,2013-08-16 20:05:00,
2013-08-16 13:10:00,92.3,52.5,29.91,North,360,5.0,5.0,26,0.00,,,0.00,Wunderground v.1.15,2013-08-16 20:10:00,
2013-08-16 13:20:00,92.9,53.0,29.91,ENE,63,3.0,3.0,26,0.00,,,0.00,Wunderground v.1.15,2013-08-16 20:20:00,
2013-08-16 13:25:00,93.6,52.5,29.91,NE,46,3.0,3.0,25,0.00,,,0.00,Wunderground v.1.15,2013-08-16 20:25:00,
2013-08-16 13:30:00,94.0,52.8,29.90,ESE,104,3.0,3.0,25,0.00,,,0.00,Wunderground v.1.15,2013-08-16 20:30:00,
2013-08-16 13:40:00,93.2,53.2,29.90,NE,42,4.0,6.0,26,0.00,,,0.00,Wunderground v.1.15,2013-08-16 20:40:00,
2013-08-16 13:45:00,94.0,52.8,29.90,SE,131,4.0,6.0,25,0.00,,,0.00,Wunderground v.1.15,2013-08-16 20:45:00,
2013-08-16 13:50:00,94.0,51.7,29.90,SE,140,3.0,3.0,24,0.00,,,0.00,Wunderground v.1.15,2013-08-16 20:50:00,
2013-08-16 13:59:00,93.2,52.1,29.90,ESE,123,6.0,8.0,25,0.00,,,0.00,Wunderground v.1.15,2013-08-16 20:59:00,
2013-08-16 14:05:00,93.2,49.9,29.90,East,92,6.0,8.0,23,0.00,,,0.00,Wunderground v.1.15,2013-08-16 21:05:00,
2013-08-16 14:10:00,93.6,51.4,29.90,ESE,118,5.0,5.0,24,0.00,,,0.00,Wunderground v.1.15,2013-08-16 21:10:00,
2013-08-16 14:15:00,93.2,51.0,29.90,ESE,119,6.0,6.0,24,0.00,,,0.00,Wunderground v.1.15,2013-08-16 21:15:00,
2013-08-16 14:25:00,94.0,50.6,29.90,East,93,3.0,4.0,23,0.00,,,0.00,Wunderground v.1.15,2013-08-16 21:25:00,
2013-08-16 14:30:00,94.0,49.4,29.89,ESE,120,3.0,3.0,22,0.00,,,0.00,Wunderground v.1.15,2013-08-16 21:30:00,
2013-08-16 14:35:00,94.3,48.4,29.89,ENE,75,4.0,4.0,21,0.00,,,0.00,Wunderground v.1.15,2013-08-16 21:35:00,
2013-08-16 14:40:00,93.4,50.1,29.89,NE,46,5.0,5.0,23,0.00,,,0.00,Wunderground v.1.15,2013-08-16 21:40:00,
2013-08-16 14:49:00,94.5,49.8,29.90,ESE,103,4.0,4.0,22,0.00,,,0.00,Wunderground v.1.15,2013-08-16 21:49:00,
2013-08-16 14:55:00,94.7,49.9,29.90,East,100,4.0,9.0,22,0.00,,,0.00,Wunderground v.1.15,2013-08-16 21:55:00,
2013-08-16 15:00:00,94.0,49.4,29.89,ESE,110,6.0,7.0,22,0.00,,,0.00,Wunderground v.1.15,2013-08-16 22:00:00,
2013-08-16 15:09:00,95.1,50.3,29.89,SE,140,3.0,4.0,22,0.00,,,0.00,Wunderground v.1.15,2013-08-16 22:09:00,
2013-08-16 15:15:00,94.7,49.9,29.88,South,189,3.0,4.0,22,0.00,,,0.00,Wunderground v.1.15,2013-08-16 22:15:00,
2013-08-16 15:25:00,95.1,49.0,29.88,WNW,296,4.0,7.0,21,0.00,,,0.00,Wunderground v.1.15,2013-08-16 22:25:00,
2013-08-16 15:30:00,95.4,50.5,29.88,ESE,117,4.0,4.0,22,0.00,,,0.00,Wunderground v.1.15,2013-08-16 22:30:00,
2013-08-16 15:40:00,94.7,49.9,29.88,NE,40,6.0,6.0,22,0.00,,,0.00,Wunderground v.1.15,2013-08-16 22:40:00,
2013-08-16 15:45:00,94.9,51.3,29.88,SE,132,3.0,6.0,23,0.00,,,0.00,Wunderground v.1.15,2013-08-16 22:45:00,
2013-08-16 15:50:00,95.9,50.9,29.88,North,5,2.0,4.0,22,0.00,,,0.00,Wunderground v.1.15,2013-08-16 22:50:00,
2013-08-16 16:00:00,95.1,51.5,29.88,NE,49,3.0,3.0,23,0.00,,,0.00,Wunderground v.1.15,2013-08-16 23:00:00,
2013-08-16 16:05:00,95.1,50.3,29.88,ESE,104,3.0,10.0,22,0.00,,,0.00,Wunderground v.1.15,2013-08-16 23:05:00,
2013-08-16 16:14:00,94.7,48.7,29.88,ESE,119,5.0,5.0,21,0.00,,,0.00,Wunderground v.1.15,2013-08-16 23:14:00,
2013-08-16 16:19:00,94.7,48.7,29.88,East,90,4.0,6.0,21,0.00,,,0.00,Wunderground v.1.15,2013-08-16 23:19:00,
2013-08-16 16:25:00,94.5,48.5,29.88,North,5,4.0,6.0,21,0.00,,,0.00,Wunderground v.1.15,2013-08-16 23:25:00,
2013-08-16 16:30:00,94.9,47.6,29.88,ENE,76,3.0,3.0,20,0.00,,,0.00,Wunderground v.1.15,2013-08-16 23:30:00,
2013-08-16 16:35:00,94.3,48.4,29.88,East,101,4.0,4.0,21,0.00,,,0.00,Wunderground v.1.15,2013-08-16 23:35:00,
2013-08-16 16:45:00,94.7,48.7,29.87,East,93,4.0,8.0,21,0.00,,,0.00,Wunderground v.1.15,2013-08-16 23:45:00,
2013-08-16 16:50:00,94.7,47.4,29.87,West,281,3.0,4.0,20,0.00,,,0.00,Wunderground v.1.15,2013-08-16 23:50:00,
2013-08-16 17:00:00,94.5,47.2,29.87,WSW,256,3.0,3.0,20,0.00,,,0.00,Wunderground v.1.15,2013-08-17 00:00:00,
2013-08-16 17:10:00,94.3,45.7,29.87,NNE,23,3.0,4.0,19,0.00,,,0.00,Wunderground v.1.15,2013-08-17 00:10:00,
2013-08-16 17:20:00,94.3,44.3,29.87,West,259,4.0,8.0,18,0.00,,,0.00,Wunderground v.1.15,2013-08-17 00:20:00,
2013-08-16 17:25:00,94.0,45.5,29.87,SW,223,4.0,8.0,19,0.00,,,0.00,Wunderground v.1.15,2013-08-17 00:25:00,
2013-08-16 17:30:00,93.8,45.3,29.87,SW,222,4.0,4.0,19,0.00,,,0.00,Wunderground v.1.15,2013-08-17 00:30:00,
2013-08-16 17:40:00,93.6,45.1,29.87,NW,313,4.0,4.0,19,0.00,,,0.00,Wunderground v.1.15,2013-08-17 00:40:00,
2013-08-16 17:50:00,93.4,45.0,29.86,WNW,286,5.0,5.0,19,0.00,,,0.00,Wunderground v.1.15,2013-08-17 00:50:00,
2013-08-16 17:55:00,93.4,45.0,29.86,WNW,287,4.0,5.0,19,0.00,,,0.00,Wunderground v.1.15,2013-08-17 00:55:00,
2013-08-16 18:00:00,93.2,44.8,29.86,NW,306,4.0,4.0,19,0.00,,,0.00,Wunderground v.1.15,2013-08-17 01:00:00,
2013-08-16 18:05:00,92.9,44.6,29.86,WNW,303,4.0,4.0,19,0.00,,,0.00,Wunderground v.1.15,2013-08-17 01:05:00,
2013-08-16 18:15:00,92.7,44.4,29.86,WNW,299,3.0,4.0,19,0.00,,,0.00,Wunderground v.1.15,2013-08-17 01:15:00,
2013-08-16 18:20:00,92.7,44.4,29.86,WSW,238,3.0,3.0,19,0.00,,,0.00,Wunderground v.1.15,2013-08-17 01:20:00,
2013-08-16 18:29:00,92.5,44.2,29.86,NW,323,4.0,4.0,19,0.00,,,0.00,Wunderground v.1.15,2013-08-17 01:29:00,
2013-08-16 18:35:00,92.3,44.1,29.86,West,263,3.0,5.0,19,0.00,,,0.00,Wunderground v.1.15,2013-08-17 01:35:00,
2013-08-16 18:40:00,92.3,42.7,29.86,NNW,329,2.0,2.0,18,0.00,,,0.00,Wunderground v.1.15,2013-08-17 01:40:00,
2013-08-16 18:49:00,91.8,42.3,29.86,North,5,1.0,1.0,18,0.00,,,0.00,Wunderground v.1.15,2013-08-17 01:49:00,
2013-08-16 18:55:00,91.6,42.1,29.86,East,91,1.0,5.0,18,0.00,,,0.00,Wunderground v.1.15,2013-08-17 01:55:00,
2013-08-16 19:00:00,91.2,41.8,29.86,East,84,2.0,5.0,18,0.00,,,0.00,Wunderground v.1.15,2013-08-17 02:00:00,
2013-08-16 19:10:00,91.0,40.1,29.86,ESE,119,2.0,2.0,17,0.00,,,0.00,Wunderground v.1.15,2013-08-17 02:10:00,
2013-08-16 19:15:00,90.5,39.7,29.86,SE,133,2.0,2.0,17,0.00,,,0.00,Wunderground v.1.15,2013-08-17 02:15:00,
2013-08-16 19:20:00,90.1,39.4,29.86,ESE,117,1.0,1.0,17,0.00,,,0.00,Wunderground v.1.15,2013-08-17 02:20:00,
2013-08-16 19:25:00,89.5,37.4,29.86,NNE,23,1.0,1.0,16,0.00,,,0.00,Wunderground v.1.15,2013-08-17 02:25:00,
2013-08-16 19:30:00,89.3,37.2,29.86,NW,310,1.0,3.0,16,0.00,,,0.00,Wunderground v.1.15,2013-08-17 02:30:00,
2013-08-16 19:40:00,88.6,38.2,29.86,NW,310,1.0,1.0,17,0.00,,,0.00,Wunderground v.1.15,2013-08-17 02:40:00,
2013-08-16 19:45:00,88.0,39.2,29.87,NW,310,0.0,1.0,18,0.00,,,0.00,Wunderground v.1.15,2013-08-17 02:45:00,
2013-08-16 19:50:00,87.4,40.1,29.87,NW,311,0.0,0.0,19,0.00,,,0.00,Wunderground v.1.15,2013-08-17 02:50:00,
2013-08-16 20:00:00,85.3,40.9,29.87,NW,311,0.0,0.0,21,0.00,,,0.00,Wunderground v.1.15,2013-08-17 03:00:00,
2013-08-16 20:05:00,84.5,41.5,29.87,NW,311,0.0,0.0,22,0.00,,,0.00,Wunderground v.1.15,2013-08-17 03:05:00,
2013-08-16 20:10:00,83.6,41.9,29.87,NW,311,0.0,0.0,23,0.00,,,0.00,Wunderground v.1.15,2013-08-17 03:10:00,
2013-08-16 20:20:00,82.0,40.5,29.87,NW,311,0.0,0.0,23,0.00,,,0.00,Wunderground v.1.15,2013-08-17 03:20:00,
2013-08-16 20:25:00,81.1,41.9,29.87,NW,311,0.0,0.0,25,0.00,,,0.00,Wunderground v.1.15,2013-08-17 03:25:00,
2013-08-16 20:35:00,79.8,42.8,29.88,NW,311,0.0,0.0,27,0.00,,,0.00,Wunderground v.1.15,2013-08-17 03:35:00,
2013-08-16 20:40:00,78.8,42.0,29.88,NW,311,0.0,0.0,27,0.00,,,0.00,Wunderground v.1.15,2013-08-17 03:40:00,
2013-08-16 20:50:00,77.7,42.0,29.88,ESE,111,0.0,0.0,28,0.00,,,0.00,Wunderground v.1.15,2013-08-17 03:50:00,
2013-08-16 20:55:00,77.2,41.6,29.88,ESE,111,0.0,0.0,28,0.00,,,0.00,Wunderground v.1.15,2013-08-17 03:55:00,
2013-08-16 21:05:00,76.5,42.7,29.89,ESE,111,0.0,0.0,30,0.00,,,0.00,Wunderground v.1.15,2013-08-17 04:05:00,
2013-08-16 21:10:00,75.8,43.0,29.89,ESE,111,0.0,0.0,31,0.00,,,0.00,Wunderground v.1.15,2013-08-17 04:10:00,
2013-08-16 21:15:00,75.1,43.2,29.90,ESE,111,0.0,0.0,32,0.00,,,0.00,Wunderground v.1.15,2013-08-17 04:15:00,
2013-08-16 21:20:00,74.4,43.4,29.90,ESE,111,0.0,2.0,33,0.00,,,0.00,Wunderground v.1.15,2013-08-17 04:20:00,
2013-08-16 21:25:00,73.7,42.8,29.90,ESE,111,0.0,2.0,33,0.00,,,0.00,Wunderground v.1.15,2013-08-17 04:25:00,
2013-08-16 21:30:00,73.2,43.1,29.90,ESE,111,0.0,0.0,34,0.00,,,0.00,Wunderground v.1.15,2013-08-17 04:30:00,
2013-08-16 21:35:00,72.8,43.5,29.90,ESE,111,0.0,0.0,35,0.00,,,0.00,Wunderground v.1.15,2013-08-17 04:35:00,
2013-08-16 21:40:00,72.5,43.3,29.90,ESE,111,0.0,0.0,35,0.00,,,0.00,Wunderground v.1.15,2013-08-17 04:40:00,
2013-08-16 21:50:00,71.8,43.4,29.90,ESE,111,0.0,0.0,36,0.00,,,0.00,Wunderground v.1.15,2013-08-17 04:50:00,
2013-08-16 21:55:00,71.5,43.8,29.90,ESE,111,0.0,0.0,37,0.00,,,0.00,Wunderground v.1.15,2013-08-17 04:55:00,
2013-08-16 22:00:00,70.9,43.3,29.91,ESE,111,0.0,0.0,37,0.00,,,0.00,Wunderground v.1.15,2013-08-17 05:00:00,
2013-08-16 22:10:00,70.3,44.2,29.91,ESE,111,0.0,0.0,39,0.00,,,0.00,Wunderground v.1.15,2013-08-17 05:10:00,
2013-08-16 22:20:00,69.6,43.5,29.91,ESE,111,0.0,0.0,39,0.00,,,0.00,Wunderground v.1.15,2013-08-17 05:20:00,
2013-08-16 22:30:00,69.3,43.9,29.91,ESE,111,0.0,0.0,40,0.00,,,0.00,Wunderground v.1.15,2013-08-17 05:30:00,
2013-08-16 22:35:00,68.8,44.1,29.91,ESE,111,0.0,0.0,41,0.00,,,0.00,Wunderground v.1.15,2013-08-17 05:35:00,
2013-08-16 22:40:00,68.6,43.9,29.91,ESE,111,0.0,0.0,41,0.00,,,0.00,Wunderground v.1.15,2013-08-17 05:40:00,
2013-08-16 22:50:00,68.3,44.3,29.90,ESE,111,0.0,0.0,42,0.00,,,0.00,Wunderground v.1.15,2013-08-17 05:50:00,
2013-08-16 22:55:00,67.9,44.0,29.90,ESE,111,0.0,0.0,42,0.00,,,0.00,Wunderground v.1.15,2013-08-17 05:55:00,
2013-08-16 23:00:00,67.6,44.3,29.91,ESE,111,0.0,0.0,43,0.00,,,0.00,Wunderground v.1.15,2013-08-17 06:00:00,
2013-08-16 23:10:00,67.1,43.8,29.91,ESE,111,0.0,0.0,43,0.00,,,0.00,Wunderground v.1.15,2013-08-17 06:10:00,
2013-08-16 23:15:00,66.9,44.3,29.91,ESE,111,0.0,0.0,44,0.00,,,0.00,Wunderground v.1.15,2013-08-17 06:15:00,
2013-08-16 23:20:00,66.6,44.6,29.91,ESE,111,0.0,0.0,45,0.00,,,0.00,Wunderground v.1.15,2013-08-17 06:20:00,
2013-08-16 23:25:00,66.4,44.4,29.91,ESE,111,0.0,0.0,45,0.00,,,0.00,Wunderground v.1.15,2013-08-17 06:25:00,
2013-08-16 23:35:00,66.1,44.1,29.91,ESE,111,0.0,0.0,45,0.00,,,0.00,Wunderground v.1.15,2013-08-17 06:35:00,
2013-08-16 23:40:00,66.0,44.6,29.91,ESE,111,0.0,0.0,46,0.00,,,0.00,Wunderground v.1.15,2013-08-17 06:40:00,
2013-08-16 23:45:00,65.6,44.3,29.91,ESE,111,0.0,0.0,46,0.00,,,0.00,Wunderground v.1.15,2013-08-17 06:45:00,
2013-08-16 23:50:00,65.2,44.5,29.91,ESE,111,0.0,0.0,47,0.00,,,0.00,Wunderground v.1.15,2013-08-17 06:50:00,
2013-08-16 23:59:00,64.8,44.6,29.91,ESE,111,0.0,0.0,48,0.00,,,0.00,Wunderground v.1.15,2013-08-17 06:59:00,